Time;durP1;ratioP1;P1;durP2;ratioP2;P2;SDS_P1;SDS_P2;PMS_P1;PMS_P2;Temp;Humidity;BMP_temperature;BMP_pressure;BME280_temperature;BME280_humidity;BME280_pressure;Samples;Min_cycle;Max_cycle;Signal;HPM_P1;HPM_P2
2022/06/26 00:00:09;;;;;;;3.75;2.20;;;19.30;82.80;;;;;;5024770;28;20087;-76
2022/06/26 00:02:36;;;;;;;3.20;2.10;;;19.40;82.70;;;;;;5053297;28;20079;-76
2022/06/26 00:05:04;;;;;;;2.80;2.00;;;19.40;82.70;;;;;;5057360;28;20044;-76
2022/06/26 00:07:31;;;;;;;4.13;2.50;;;19.30;82.70;;;;;;5030483;28;20045;-76
2022/06/26 00:09:58;;;;;;;3.50;2.17;;;19.30;82.80;;;;;;5051057;28;20761;-76
2022/06/26 00:12:25;;;;;;;4.18;2.40;;;19.30;83.00;;;;;;5040965;28;20452;-76
2022/06/26 00:14:52;;;;;;;4.18;2.70;;;19.20;83.20;;;;;;5054066;28;20493;-76
2022/06/26 00:17:19;;;;;;;3.58;2.17;;;19.20;83.30;;;;;;5055992;28;20105;-76
2022/06/26 00:19:47;;;;;;;4.30;1.80;;;19.20;83.40;;;;;;5074004;28;20476;-76
2022/06/26 00:22:14;;;;;;;4.38;2.40;;;19.20;83.40;;;;;;5041343;28;20558;-77
2022/06/26 00:24:42;;;;;;;4.07;2.25;;;19.30;83.40;;;;;;5051202;28;20037;-76
2022/06/26 00:27:09;;;;;;;3.72;2.38;;;19.30;83.30;;;;;;5046449;28;20083;-76
2022/06/26 00:29:36;;;;;;;4.15;2.40;;;19.30;83.30;;;;;;5053907;28;20048;-76
2022/06/26 00:32:04;;;;;;;4.72;2.20;;;19.30;83.50;;;;;;5035384;28;20136;-77
2022/06/26 00:34:32;;;;;;;3.85;1.90;;;19.30;83.60;;;;;;5059827;28;20041;-77
2022/06/26 00:36:59;;;;;;;2.95;2.10;;;19.30;83.80;;;;;;5049688;28;20045;-77
2022/06/26 00:39:26;;;;;;;2.92;1.90;;;19.20;84.00;;;;;;5037098;28;20067;-78
2022/06/26 00:41:53;;;;;;;3.25;2.28;;;19.20;84.20;;;;;;5042755;28;20052;-78
2022/06/26 00:44:22;;;;;;;3.33;2.05;;;19.20;84.50;;;;;;5037615;28;20524;-78
2022/06/26 00:46:50;;;;;;;3.28;2.03;;;19.20;85.30;;;;;;5068939;28;20052;-78
2022/06/26 00:49:18;;;;;;;4.30;2.20;;;19.20;84.80;;;;;;5039854;28;20049;-79
2022/06/26 00:51:50;;;;;;;3.65;2.50;;;19.20;84.90;;;;;;5066070;28;20495;-80
2022/06/26 00:54:19;;;;;;;3.88;2.35;;;19.20;85.00;;;;;;5067280;28;20136;-79
2022/06/26 00:56:46;;;;;;;3.63;2.38;;;19.10;85.10;;;;;;5070351;28;20036;-80
2022/06/26 00:59:16;;;;;;;4.63;2.65;;;19.10;85.30;;;;;;5063349;28;20123;-80
2022/06/26 01:01:43;;;;;;;4.47;2.40;;;19.10;85.60;;;;;;5055755;28;20040;-82
2022/06/26 01:04:11;;;;;;;3.67;2.20;;;19.00;85.80;;;;;;5027025;28;20045;-81
2022/06/26 01:06:38;;;;;;;3.03;2.20;;;19.00;86.00;;;;;;5049441;28;20052;-81
2022/06/26 01:09:05;;;;;;;4.15;2.25;;;19.00;86.20;;;;;;5038546;28;20417;-81
2022/06/26 01:11:32;;;;;;;3.75;2.20;;;19.10;86.30;;;;;;5054552;28;20037;-81
2022/06/26 01:14:00;;;;;;;3.33;1.83;;;19.00;86.40;;;;;;5054961;28;20077;-82
2022/06/26 01:16:27;;;;;;;4.25;2.33;;;19.00;86.60;;;;;;5020482;28;20057;-81
2022/06/26 01:18:56;;;;;;;2.47;1.45;;;19.00;86.60;;;;;;5040484;28;20497;-81
2022/06/26 01:21:24;;;;;;;3.55;2.08;;;19.00;86.70;;;;;;5064395;28;20446;-82
2022/06/26 01:23:52;;;;;;;3.30;1.67;;;19.00;86.70;;;;;;5050708;28;20037;-81
2022/06/26 01:26:21;;;;;;;3.42;2.17;;;19.00;86.80;;;;;;5066791;28;20049;-82
2022/06/26 01:28:49;;;;;;;3.78;2.05;;;18.90;86.70;;;;;;5055888;28;20103;-82
2022/06/26 01:31:18;;;;;;;3.00;2.00;;;18.90;86.70;;;;;;5035668;28;20128;-82
2022/06/26 01:33:50;;;;;;;3.60;2.15;;;18.90;86.80;;;;;;5052757;28;20041;-82
2022/06/26 01:36:19;;;;;;;3.17;1.80;;;18.90;86.90;;;;;;5054545;28;20049;-82
2022/06/26 01:38:47;;;;;;;3.47;2.22;;;18.80;86.90;;;;;;5036283;28;20052;-83
2022/06/26 01:41:14;;;;;;;4.82;2.80;;;18.80;87.00;;;;;;5047934;28;20041;-85
2022/06/26 01:43:43;;;;;;;5.40;2.97;;;18.80;87.20;;;;;;5056600;28;20048;-88
2022/06/26 01:46:12;;;;;;;5.18;3.10;;;18.80;87.50;;;;;;5073311;28;20044;-86
2022/06/26 01:48:40;;;;;;;5.05;3.58;;;18.70;87.50;;;;;;5039748;28;20045;-84
2022/06/26 01:51:10;;;;;;;5.30;3.65;;;18.70;87.70;;;;;;5045627;28;20069;-82
2022/06/26 01:53:40;;;;;;;5.28;3.53;;;18.60;88.00;;;;;;5066541;28;20155;-82
2022/06/26 01:56:08;;;;;;;5.82;3.75;;;18.60;88.30;;;;;;5047336;28;20044;-82
2022/06/26 01:58:42;;;;;;;6.38;3.45;;;18.50;88.30;;;;;;5040899;28;20051;-83
2022/06/26 02:01:14;;;;;;;6.40;3.70;;;18.50;88.40;;;;;;5053835;28;20047;-82
2022/06/26 02:03:42;;;;;;;5.00;3.70;;;18.40;88.60;;;;;;5052923;28;20127;-82
2022/06/26 02:06:10;;;;;;;5.95;3.90;;;18.40;88.70;;;;;;5055635;28;20032;-82
2022/06/26 02:08:37;;;;;;;5.25;3.83;;;18.40;88.80;;;;;;5054052;28;20044;-82
2022/06/26 02:13:51;;;;;;;5.13;3.58;;;18.30;89.10;;;;;;5052023;28;20119;-82
2022/06/26 02:16:24;;;;;;;5.37;3.77;;;18.20;89.00;;;;;;5029234;28;20051;-81
2022/06/26 02:18:53;;;;;;;12.80;9.82;;;18.20;89.20;;;;;;5058366;28;20052;-82
2022/06/26 02:21:23;;;;;;;8.57;7.03;;;18.10;89.40;;;;;;5030811;28;20037;-82
2022/06/26 02:23:51;;;;;;;13.57;11.48;;;18.10;89.50;;;;;;5053265;28;20041;-82
2022/06/26 02:26:19;;;;;;;13.45;10.48;;;18.10;89.70;;;;;;5051563;28;20094;-82
2022/06/26 02:28:51;;;;;;;12.90;10.10;;;18.10;89.60;;;;;;5063123;28;20459;-81
2022/06/26 02:31:18;;;;;;;12.45;10.00;;;18.10;89.60;;;;;;5069182;28;20051;-81
2022/06/26 02:33:47;;;;;;;11.70;9.50;;;18.10;89.60;;;;;;5060843;28;20053;-81
2022/06/26 02:36:14;;;;;;;9.13;7.13;;;18.10;89.60;;;;;;5036730;28;20409;-81
2022/06/26 02:38:42;;;;;;;7.95;6.15;;;18.10;89.70;;;;;;5051522;28;20099;-81
2022/06/26 02:41:09;;;;;;;6.00;4.90;;;18.10;89.80;;;;;;5045298;28;20493;-81
2022/06/26 02:43:37;;;;;;;5.55;4.40;;;18.10;89.90;;;;;;5037240;28;20359;-81
2022/06/26 02:46:06;;;;;;;5.22;4.07;;;18.00;90.00;;;;;;5051358;28;20462;-81
2022/06/26 02:48:33;;;;;;;4.75;3.78;;;18.00;90.00;;;;;;5056290;28;20076;-81
2022/06/26 02:51:01;;;;;;;5.32;3.70;;;18.00;90.00;;;;;;5055276;28;20400;-81
2022/06/26 02:53:28;;;;;;;4.75;3.65;;;18.00;90.00;;;;;;5054948;28;20131;-81
2022/06/26 02:55:55;;;;;;;4.53;3.35;;;18.00;90.10;;;;;;5040761;28;20448;-81
2022/06/26 02:58:24;;;;;;;4.80;3.35;;;18.00;90.10;;;;;;5035081;28;20044;-80
2022/06/26 03:00:59;;;;;;;4.97;3.40;;;18.00;90.00;;;;;;5016962;28;20144;-81
2022/06/26 03:03:28;;;;;;;5.07;3.60;;;18.00;90.00;;;;;;5031769;28;20077;-80
2022/06/26 03:05:55;;;;;;;5.05;3.45;;;18.00;90.10;;;;;;5034998;28;20080;-80
2022/06/26 03:08:24;;;;;;;7.28;4.25;;;18.00;90.10;;;;;;5024844;28;20064;-81
2022/06/26 03:10:52;;;;;;;5.75;4.30;;;18.00;90.20;;;;;;5008582;28;20696;-80
2022/06/26 03:13:19;;;;;;;5.28;3.65;;;17.90;90.10;;;;;;5034031;28;20043;-80
2022/06/26 03:15:46;;;;;;;4.35;3.20;;;17.90;90.10;;;;;;5065683;28;20481;-80
2022/06/26 03:18:16;;;;;;;5.50;3.45;;;18.00;90.10;;;;;;5051188;28;20417;-81
2022/06/26 03:20:44;;;;;;;5.90;3.60;;;18.00;90.10;;;;;;5017966;28;20044;-82
2022/06/26 03:23:11;;;;;;;6.32;4.32;;;18.00;90.10;;;;;;5050602;28;20570;-81
2022/06/26 03:25:39;;;;;;;5.40;3.70;;;18.00;90.10;;;;;;5047042;28;20044;-80
2022/06/26 03:28:06;;;;;;;4.82;3.28;;;18.00;90.10;;;;;;5040583;28;20053;-81
2022/06/26 03:30:40;;;;;;;5.43;4.10;;;18.00;90.10;;;;;;5041542;28;20118;-80
2022/06/26 03:33:07;;;;;;;6.55;4.20;;;18.00;90.10;;;;;;5052019;28;20056;-81
2022/06/26 03:35:35;;;;;;;5.53;3.45;;;18.10;90.10;;;;;;5028500;28;20052;-81
2022/06/26 03:38:03;;;;;;;6.82;4.00;;;18.10;90.10;;;;;;5035042;28;20094;-81
2022/06/26 03:40:32;;;;;;;8.00;3.92;;;18.10;90.00;;;;;;5043091;28;20041;-80
2022/06/26 03:43:00;;;;;;;6.13;3.97;;;18.10;90.00;;;;;;5024148;28;20481;-80
2022/06/26 03:45:38;;;;;;;5.63;4.03;;;18.10;90.00;;;;;;5047179;28;20045;-81
2022/06/26 03:48:06;;;;;;;7.05;4.93;;;18.10;90.00;;;;;;5049217;28;20058;-80
2022/06/26 03:50:33;;;;;;;7.50;4.47;;;18.10;90.00;;;;;;5043172;28;20495;-82
2022/06/26 03:53:02;;;;;;;5.45;3.85;;;18.10;90.00;;;;;;5042671;28;20094;-81
2022/06/26 03:55:29;;;;;;;6.82;4.93;;;18.10;90.00;;;;;;5061060;28;20048;-82
2022/06/26 03:57:56;;;;;;;6.53;4.75;;;18.10;90.00;;;;;;5034196;28;20041;-82
2022/06/26 04:00:25;;;;;;;7.50;4.97;;;18.00;90.00;;;;;;5019575;28;20083;-81
2022/06/26 04:02:52;;;;;;;7.25;4.93;;;18.00;90.30;;;;;;5034470;28;20098;-81
2022/06/26 04:05:24;;;;;;;7.13;4.28;;;18.00;90.10;;;;;;5045328;28;20670;-82
2022/06/26 04:07:55;;;;;;;7.13;4.65;;;18.00;90.40;;;;;;5054645;28;20040;-81
2022/06/26 04:10:29;;;;;;;7.82;5.40;;;18.10;90.10;;;;;;5055478;28;20056;-81
2022/06/26 04:13:05;;;;;;;8.70;5.95;;;18.00;90.10;;;;;;5041356;28;20044;-81
2022/06/26 04:15:37;;;;;;;8.55;5.40;;;18.00;90.00;;;;;;5073599;28;20181;-81
2022/06/26 04:18:05;;;;;;;8.73;5.10;;;18.00;90.10;;;;;;5044888;28;20091;-81
2022/06/26 04:20:32;;;;;;;7.55;4.38;;;18.00;90.10;;;;;;5009588;28;20040;-81
2022/06/26 04:23:07;;;;;;;9.45;6.00;;;18.00;90.00;;;;;;5050272;28;20049;-81
2022/06/26 04:25:36;;;;;;;9.20;5.88;;;18.00;90.00;;;;;;5052467;28;20136;-81
2022/06/26 04:28:05;;;;;;;10.88;6.57;;;17.90;90.00;;;;;;5070319;28;20041;-81
2022/06/26 04:30:38;;;;;;;9.48;5.65;;;17.90;90.00;;;;;;5065012;28;20063;-81
2022/06/26 04:33:05;;;;;;;9.02;6.07;;;17.80;90.00;;;;;;5073338;28;20154;-81
2022/06/26 04:35:34;;;;;;;9.13;6.40;;;17.80;90.00;;;;;;5043924;28;20049;-81
2022/06/26 04:38:02;;;;;;;9.88;6.32;;;17.70;90.00;;;;;;5055059;28;20041;-81
2022/06/26 04:40:29;;;;;;;9.20;6.32;;;17.60;90.00;;;;;;5045562;28;20045;-81
2022/06/26 04:42:57;;;;;;;9.63;6.35;;;17.60;90.10;;;;;;5059400;28;20073;-81
2022/06/26 04:45:24;;;;;;;8.23;5.80;;;17.50;90.10;;;;;;5060362;28;20040;-81
2022/06/26 04:47:54;;;;;;;8.43;5.38;;;17.50;90.10;;;;;;5054317;28;20045;-81
2022/06/26 04:50:22;;;;;;;7.90;4.50;;;17.50;90.10;;;;;;5040657;28;20488;-81
2022/06/26 04:52:52;;;;;;;6.68;4.50;;;17.50;90.10;;;;;;5053731;28;20047;-81
2022/06/26 04:55:20;;;;;;;7.80;5.20;;;17.50;90.10;;;;;;5038550;28;20520;-81
2022/06/26 04:57:49;;;;;;;7.03;4.57;;;17.50;90.00;;;;;;5037754;28;20136;-81
2022/06/26 05:00:16;;;;;;;6.43;4.45;;;17.60;90.00;;;;;;5070468;28;20098;-81
2022/06/26 05:02:57;;;;;;;9.75;5.03;;;17.70;89.90;;;;;;5058799;28;20040;-81
2022/06/26 05:05:48;;;;;;;9.20;6.20;;;17.70;89.80;;;;;;5039969;28;20045;-80
2022/06/26 05:08:34;;;;;;;12.82;7.13;;;17.70;89.70;;;;;;5040695;28;20523;-81
2022/06/26 05:11:03;;;;;;;10.70;6.88;;;17.60;89.80;;;;;;5024859;28;20446;-81
2022/06/26 05:13:33;;;;;;;9.60;7.10;;;17.50;90.00;;;;;;5037363;28;20397;-81
2022/06/26 05:16:10;;;;;;;10.95;7.28;;;17.50;90.00;;;;;;5043918;28;20130;-81
2022/06/26 05:18:37;;;;;;;10.38;6.25;;;17.40;90.00;;;;;;5037035;28;20060;-81
2022/06/26 05:21:04;;;;;;;10.32;5.88;;;17.40;90.00;;;;;;5053072;28;20044;-81
2022/06/26 05:23:38;;;;;;;8.10;5.25;;;17.40;90.10;;;;;;5048117;28;20378;-81
2022/06/26 05:26:08;;;;;;;8.50;5.05;;;17.30;90.00;;;;;;5051454;28;20865;-81
2022/06/26 05:28:35;;;;;;;8.85;5.68;;;17.30;90.00;;;;;;5056595;28;20045;-81
2022/06/26 05:31:03;;;;;;;9.02;6.25;;;17.30;90.10;;;;;;5056272;28;20037;-81
2022/06/26 05:33:35;;;;;;;9.18;5.88;;;17.30;90.10;;;;;;5041115;28;20044;-81
2022/06/26 05:36:02;;;;;;;12.65;6.90;;;17.30;90.00;;;;;;5044710;28;20053;-81
2022/06/26 05:38:29;;;;;;;8.77;5.47;;;17.30;90.00;;;;;;5025429;28;20488;-81
2022/06/26 05:40:56;;;;;;;8.65;5.18;;;17.30;90.00;;;;;;5055664;28;20565;-81
2022/06/26 05:43:23;;;;;;;7.85;4.78;;;17.40;90.00;;;;;;5032329;28;20762;-82
2022/06/26 05:45:52;;;;;;;7.85;4.68;;;17.30;90.00;;;;;;5071310;28;20049;-81
2022/06/26 05:48:28;;;;;;;8.38;4.97;;;17.40;90.00;;;;;;5065711;28;20128;-82
2022/06/26 05:51:24;;;;;;;8.77;4.93;;;17.60;90.00;;;;;;5011469;28;20050;-82
2022/06/26 05:54:10;;;;;;;6.85;4.30;;;17.70;89.70;;;;;;5063910;28;20106;-82
2022/06/26 05:56:51;;;;;;;6.47;4.13;;;17.90;89.50;;;;;;5024766;28;20040;-82
2022/06/26 05:59:37;;;;;;;9.07;4.68;;;18.00;89.20;;;;;;5036440;28;20048;-82
2022/06/26 06:02:25;;;;;;;8.85;6.28;;;18.20;88.90;;;;;;5030433;28;20182;-82
2022/06/26 06:04:52;;;;;;;9.82;5.05;;;18.20;88.50;;;;;;5064960;28;20070;-82
2022/06/26 06:07:19;;;;;;;7.88;5.80;;;18.20;88.40;;;;;;5032841;28;20042;-82
2022/06/26 06:09:50;;;;;;;11.30;7.22;;;18.30;88.20;;;;;;5019967;28;20562;-82
2022/06/26 06:12:17;;;;;;;7.57;5.45;;;18.20;87.80;;;;;;5046648;28;20044;-82
2022/06/26 06:14:44;;;;;;;9.40;6.30;;;18.20;88.10;;;;;;5019328;28;20065;-82
2022/06/26 06:19:58;;;;;;;6.93;4.85;;;18.10;88.10;;;;;;5054691;28;20053;-82
2022/06/26 06:22:25;;;;;;;7.32;5.28;;;18.10;87.90;;;;;;5032656;28;20523;-82
2022/06/26 06:24:53;;;;;;;9.75;6.43;;;18.20;87.80;;;;;;5041279;28;20122;-82
2022/06/26 06:27:20;;;;;;;8.65;5.95;;;18.20;87.40;;;;;;5024095;28;20152;-82
2022/06/26 06:29:48;;;;;;;6.93;5.05;;;18.20;87.40;;;;;;5021519;28;20038;-82
2022/06/26 06:32:17;;;;;;;8.48;5.63;;;18.30;87.30;;;;;;5045668;28;20045;-82
2022/06/26 06:34:45;;;;;;;11.60;6.78;;;18.40;87.10;;;;;;5051276;28;20043;-84
2022/06/26 06:37:13;;;;;;;8.50;5.88;;;18.40;86.70;;;;;;5055335;28;20408;-83
2022/06/26 06:39:42;;;;;;;7.40;4.72;;;18.50;86.80;;;;;;5039062;28;20094;-84
2022/06/26 06:42:10;;;;;;;8.55;5.38;;;18.70;86.50;;;;;;5063549;28;20097;-85
2022/06/26 06:44:37;;;;;;;7.93;5.30;;;18.90;86.10;;;;;;5032669;28;20052;-85
2022/06/26 06:47:36;;;;;;;8.82;5.60;;;19.00;85.60;;;;;;5037190;28;20041;-84
2022/06/26 06:50:22;;;;;;;6.95;5.05;;;19.00;85.40;;;;;;5057908;28;20121;-84
2022/06/26 06:52:54;;;;;;;5.88;3.95;;;19.30;85.30;;;;;;5027471;28;20493;-86
2022/06/26 06:55:21;;;;;;;6.72;4.00;;;19.50;85.00;;;;;;5051609;28;20076;-85
2022/06/26 06:57:51;;;;;;;4.85;3.50;;;19.60;84.50;;;;;;5035235;28;20045;-86
2022/06/26 07:00:21;;;;;;;5.63;3.70;;;19.70;84.20;;;;;;5048755;28;20115;-84
2022/06/26 07:02:48;;;;;;;4.72;3.10;;;19.80;84.20;;;;;;5044870;28;20045;-85
2022/06/26 07:05:19;;;;;;;4.60;3.05;;;19.80;83.90;;;;;;5020723;28;20489;-85
2022/06/26 07:07:49;;;;;;;5.15;4.13;;;19.80;83.90;;;;;;5049062;28;20510;-86
2022/06/26 07:10:17;;;;;;;5.15;3.30;;;19.90;83.60;;;;;;5054933;28;20044;-86
2022/06/26 07:12:56;;;;;;;5.40;3.42;;;19.90;83.10;;;;;;5015368;28;20036;-86
2022/06/26 07:15:24;;;;;;;5.10;3.55;;;19.90;82.70;;;;;;5034988;28;20048;-86
2022/06/26 07:17:51;;;;;;;3.33;2.50;;;19.90;82.80;;;;;;5039566;28;20059;-86
2022/06/26 07:20:19;;;;;;;3.55;2.53;;;20.00;82.70;;;;;;5034820;28;20080;-86
2022/06/26 07:22:47;;;;;;;3.88;2.63;;;20.00;82.50;;;;;;5044112;28;20045;-85
2022/06/26 07:25:43;;;;;;;4.20;2.53;;;20.00;82.50;;;;;;5038922;28;20045;-86
2022/06/26 07:28:12;;;;;;;5.07;2.72;;;20.00;81.80;;;;;;5036473;28;20099;-85
2022/06/26 07:30:42;;;;;;;5.75;2.78;;;20.10;81.40;;;;;;5055052;28;20045;-85
2022/06/26 07:35:57;;;;;;;5.18;3.03;;;20.10;80.70;;;;;;5047018;28;20053;-83
2022/06/26 07:38:29;;;;;;;4.90;2.65;;;20.20;80.10;;;;;;5033137;28;20103;-84
2022/06/26 07:40:57;;;;;;;4.20;1.77;;;20.30;79.90;;;;;;5048818;28;20048;-84
2022/06/26 07:43:25;;;;;;;3.35;1.92;;;20.30;80.00;;;;;;5035761;28;20052;-84
2022/06/26 07:45:52;;;;;;;3.97;1.65;;;20.50;79.70;;;;;;5037455;28;20036;-85
2022/06/26 07:48:20;;;;;;;3.00;1.27;;;20.60;79.30;;;;;;5033141;28;20047;-85
2022/06/26 07:50:52;;;;;;;3.55;1.35;;;20.60;78.50;;;;;;5044935;28;20400;-85
2022/06/26 07:53:21;;;;;;;3.17;1.55;;;20.70;78.50;;;;;;5068821;28;20045;-84
2022/06/26 07:55:50;;;;;;;3.22;1.23;;;20.70;78.20;;;;;;5055294;28;20044;-84
2022/06/26 07:58:17;;;;;;;2.13;1.08;;;20.80;77.40;;;;;;5055296;28;20049;-85
2022/06/26 08:00:44;;;;;;;3.78;1.60;;;20.80;77.40;;;;;;5050991;28;20052;-86
2022/06/26 08:03:15;;;;;;;2.35;1.23;;;20.80;77.40;;;;;;5054622;28;20057;-85
2022/06/26 08:05:43;;;;;;;1.60;0.90;;;20.90;77.60;;;;;;5060503;28;20048;-84
2022/06/26 08:08:11;;;;;;;2.65;1.00;;;21.20;77.40;;;;;;5062348;28;20080;-82
2022/06/26 08:10:38;;;;;;;2.83;1.00;;;21.30;77.40;;;;;;5068462;28;20064;-82
2022/06/26 08:13:06;;;;;;;3.53;1.08;;;21.40;76.40;;;;;;5063631;28;20579;-85
2022/06/26 08:15:35;;;;;;;4.25;1.38;;;21.40;76.00;;;;;;5057468;28;20041;-84
2022/06/26 08:18:03;;;;;;;2.55;1.23;;;21.50;75.50;;;;;;5068851;28;20044;-85
2022/06/26 08:20:31;;;;;;;2.70;1.30;;;21.40;75.50;;;;;;5060203;28;20159;-79
2022/06/26 08:22:58;;;;;;;2.05;1.00;;;21.50;75.50;;;;;;5067480;28;20041;-79
2022/06/26 08:25:26;;;;;;;2.60;1.10;;;21.50;75.30;;;;;;5052050;28;20045;-82
2022/06/26 08:27:54;;;;;;;2.00;0.82;;;21.60;75.10;;;;;;5059987;28;20037;-82
2022/06/26 08:30:22;;;;;;;1.67;0.90;;;21.70;75.70;;;;;;5054432;28;20041;-80
2022/06/26 08:32:50;;;;;;;1.70;0.80;;;21.70;75.10;;;;;;5068146;28;20040;-79
2022/06/26 08:35:17;;;;;;;2.28;0.60;;;21.70;74.80;;;;;;5025143;28;20505;-80
2022/06/26 08:37:45;;;;;;;1.75;0.70;;;21.60;75.00;;;;;;5048190;28;20481;-79
2022/06/26 08:40:12;;;;;;;1.20;0.52;;;21.70;75.10;;;;;;5019012;28;20131;-80
2022/06/26 08:42:41;;;;;;;1.73;0.80;;;21.70;75.10;;;;;;5066320;28;20366;-80
2022/06/26 08:45:09;;;;;;;1.30;0.70;;;21.60;75.10;;;;;;5053728;28;20049;-80
2022/06/26 08:47:39;;;;;;;2.00;0.70;;;21.70;75.20;;;;;;5044536;28;20091;-80
2022/06/26 08:50:08;;;;;;;1.95;0.60;;;21.60;75.10;;;;;;5057118;28;20091;-80
2022/06/26 08:52:36;;;;;;;1.85;0.73;;;21.70;75.40;;;;;;5011179;28;20508;-79
2022/06/26 08:55:04;;;;;;;1.88;0.70;;;21.60;74.60;;;;;;5042687;28;20420;-79
2022/06/26 08:57:33;;;;;;;2.33;0.80;;;21.70;74.70;;;;;;5049038;28;20044;-81
2022/06/26 09:00:03;;;;;;;1.80;0.80;;;21.80;74.70;;;;;;5054772;28;20440;-80
2022/06/26 09:02:30;;;;;;;1.83;0.63;;;21.80;74.50;;;;;;5056971;28;20049;-81
2022/06/26 09:04:57;;;;;;;2.28;0.70;;;21.80;74.40;;;;;;5063707;28;20057;-80
2022/06/26 09:07:24;;;;;;;3.25;0.90;;;21.80;74.20;;;;;;5059689;28;20546;-86
2022/06/26 09:09:53;;;;;;;1.77;1.00;;;21.90;74.20;;;;;;5037085;28;20040;-86
2022/06/26 09:12:20;;;;;;;1.30;0.68;;;21.90;73.90;;;;;;5067404;28;20095;-80
2022/06/26 09:14:52;;;;;;;1.25;0.50;;;22.00;73.70;;;;;;5031119;28;20056;-85
2022/06/26 09:17:23;;;;;;;1.50;0.90;;;22.10;73.30;;;;;;5042695;28;20102;-81
2022/06/26 09:19:51;;;;;;;2.10;0.53;;;22.10;72.80;;;;;;5043469;28;20509;-84
2022/06/26 09:22:18;;;;;;;1.85;0.70;;;22.10;72.90;;;;;;5055561;28;20439;-81
2022/06/26 09:24:54;;;;;;;1.67;0.60;;;22.10;72.80;;;;;;5068614;28;20041;-79
2022/06/26 09:27:22;;;;;;;1.25;0.50;;;22.20;72.90;;;;;;5064650;28;20047;-81
2022/06/26 09:29:51;;;;;;;1.38;0.50;;;22.10;72.80;;;;;;5051394;28;20037;-81
2022/06/26 09:32:22;;;;;;;2.22;0.80;;;22.10;73.00;;;;;;5059272;28;20473;-81
2022/06/26 09:34:51;;;;;;;1.13;0.50;;;22.20;73.00;;;;;;5056366;28;20190;-82
2022/06/26 09:37:20;;;;;;;1.20;0.52;;;22.20;72.80;;;;;;5063093;28;20401;-79
2022/06/26 09:40:08;;;;;;;1.25;0.50;;;22.30;72.90;;;;;;5066744;28;20033;-78
2022/06/26 09:42:35;;;;;;;2.47;0.82;;;22.30;72.90;;;;;;5031443;28;20118;-78
2022/06/26 09:45:03;;;;;;;2.50;0.70;;;22.30;72.50;;;;;;5039853;28;20052;-80
2022/06/26 09:47:35;;;;;;;1.65;0.70;;;22.30;72.40;;;;;;5023278;28;20378;-80
2022/06/26 09:50:06;;;;;;;3.95;0.80;;;22.30;72.40;;;;;;5053270;28;20049;-80
2022/06/26 09:52:33;;;;;;;2.13;0.90;;;22.30;72.10;;;;;;5052645;28;20489;-79
2022/06/26 09:55:02;;;;;;;1.48;0.82;;;22.30;72.00;;;;;;5054274;28;20029;-79
2022/06/26 09:57:31;;;;;;;2.10;0.80;;;22.30;72.10;;;;;;5047813;28;20139;-79
2022/06/26 09:59:58;;;;;;;1.40;0.60;;;22.30;71.90;;;;;;5064308;28;20049;-80
2022/06/26 10:08:03;;;;;;;1.08;0.52;;;22.30;71.50;;;;;;5069706;28;20106;-81
2022/06/26 10:10:32;;;;;;;2.10;0.73;;;22.30;71.60;;;;;;5068717;28;20484;-81
2022/06/26 10:13:06;;;;;;;1.42;0.77;;;22.30;71.20;;;;;;5019523;28;20099;-81
2022/06/26 10:15:41;;;;;;;3.25;0.80;;;22.30;70.80;;;;;;5068314;28;20037;-81
2022/06/26 10:18:28;;;;;;;1.38;0.65;;;22.20;70.60;;;;;;5038630;28;20048;-80
2022/06/26 10:20:57;;;;;;;1.98;0.68;;;22.40;70.70;;;;;;5071235;28;20062;-80
2022/06/26 10:23:34;;;;;;;3.10;0.93;;;22.30;70.60;;;;;;5035418;28;20126;-81
2022/06/26 10:26:15;;;;;;;2.63;0.63;;;22.40;70.20;;;;;;5048302;28;20041;-80
2022/06/26 10:28:56;;;;;;;1.33;0.70;;;22.40;70.50;;;;;;5047724;28;20048;-80
2022/06/26 10:31:23;;;;;;;1.92;0.80;;;22.50;70.50;;;;;;5054468;28;20041;-80
2022/06/26 10:33:51;;;;;;;2.20;0.68;;;22.40;70.40;;;;;;5041454;28;20051;-81
2022/06/26 10:36:24;;;;;;;2.28;0.80;;;22.40;70.50;;;;;;5049349;28;20056;-82
2022/06/26 10:39:03;;;;;;;1.80;0.60;;;22.30;70.20;;;;;;5052060;28;20489;-82
2022/06/26 10:44:44;;;;;;;1.48;0.73;;;22.20;70.20;;;;;;5053261;28;20083;-86
2022/06/26 10:47:16;;;;;;;1.60;0.77;;;22.20;70.50;;;;;;5071269;28;20086;-86
2022/06/26 10:49:52;;;;;;;1.77;0.52;;;22.30;70.60;;;;;;5038603;28;20041;-85
2022/06/26 10:52:28;;;;;;;2.35;0.68;;;22.30;70.50;;;;;;5024004;28;20045;-85
2022/06/26 10:54:57;;;;;;;1.55;0.65;;;22.40;70.10;;;;;;5055434;28;20060;-86
2022/06/26 10:57:34;;;;;;;2.20;0.73;;;22.40;70.30;;;;;;5030700;28;20210;-85
2022/06/26 11:00:05;;;;;;;2.00;0.70;;;22.60;70.10;;;;;;5069357;28;20048;-85
2022/06/26 11:02:44;;;;;;;1.02;0.63;;;22.80;70.00;;;;;;5050291;28;20052;-83
2022/06/26 11:06:31;;;;;;;;;;;;;;;;;;;;;
2022/06/26 11:09:09;;;;;;;1.67;0.77;;;23.30;69.50;;;;;;5036792;28;20049;-86
2022/06/26 11:11:38;;;;;;;3.10;1.13;;;23.30;69.30;;;;;;5058131;28;20045;-86
2022/06/26 11:14:12;;;;;;;2.67;0.93;;;23.40;68.80;;;;;;5059255;28;20036;-84
2022/06/26 11:16:44;;;;;;;2.67;1.02;;;23.40;68.90;;;;;;5053505;28;20579;-84
2022/06/26 11:19:25;;;;;;;2.65;1.15;;;23.30;68.40;;;;;;5062424;28;20398;-82
2022/06/26 11:22:12;;;;;;;3.05;1.48;;;23.10;68.50;;;;;;5066815;28;20090;-82
2022/06/26 11:24:56;;;;;;;2.42;0.98;;;23.00;68.60;;;;;;5059065;28;20386;-81
2022/06/26 11:27:28;;;;;;;1.65;0.70;;;22.90;68.80;;;;;;5059771;28;20390;-79
2022/06/26 11:29:55;;;;;;;1.92;0.70;;;22.90;68.80;;;;;;5069179;28;20045;-81
2022/06/26 11:32:24;;;;;;;2.58;0.75;;;22.90;68.80;;;;;;5060659;28;20450;-80
2022/06/26 11:34:55;;;;;;;3.42;0.88;;;23.00;68.60;;;;;;5032491;28;20102;-90
2022/06/26 11:37:36;;;;;;;2.28;0.90;;;23.00;68.10;;;;;;5054266;28;20044;-80
2022/06/26 11:40:13;;;;;;;2.83;0.75;;;22.90;68.10;;;;;;5024307;28;20462;-79
2022/06/26 11:42:40;;;;;;;2.05;0.60;;;22.80;68.20;;;;;;5036363;28;20131;-79
2022/06/26 11:45:08;;;;;;;2.33;0.80;;;22.80;68.40;;;;;;5049422;28;20061;-82
2022/06/26 11:47:38;;;;;;;2.03;0.60;;;22.80;68.30;;;;;;5050482;28;20377;-78
2022/06/26 11:50:07;;;;;;;1.25;0.50;;;22.80;68.60;;;;;;5050795;28;20580;-79
2022/06/26 11:52:34;;;;;;;2.83;0.80;;;22.90;68.80;;;;;;5052739;28;20051;-79
2022/06/26 11:55:01;;;;;;;1.80;0.80;;;22.90;68.80;;;;;;5046408;28;20041;-78
2022/06/26 11:57:36;;;;;;;1.40;0.60;;;22.90;69.10;;;;;;5061261;28;20045;-78
2022/06/26 12:00:05;;;;;;;1.80;0.50;;;22.80;69.00;;;;;;5051847;28;20428;-78
2022/06/26 12:02:41;;;;;;;1.52;0.60;;;22.70;69.20;;;;;;5064092;28;20570;-80
2022/06/26 12:05:10;;;;;;;2.58;0.68;;;22.70;69.20;;;;;;5055114;28;20051;-78
2022/06/26 12:07:46;;;;;;;1.80;0.70;;;22.70;69.30;;;;;;5057920;28;20044;-79
2022/06/26 12:10:25;;;;;;;1.55;0.82;;;22.60;69.70;;;;;;5070555;28;20063;-78
2022/06/26 12:12:53;;;;;;;1.13;0.57;;;22.50;69.90;;;;;;5070482;28;20494;-78
2022/06/26 12:15:30;;;;;;;2.17;0.63;;;22.50;70.30;;;;;;5038140;28;20049;-77
2022/06/26 12:17:59;;;;;;;2.13;0.60;;;22.50;70.50;;;;;;5071580;28;20052;-77
2022/06/26 12:20:41;;;;;;;0.98;0.55;;;22.50;70.60;;;;;;5071687;28;20047;-82
2022/06/26 12:24:14;;;;;;;1.20;0.50;;;22.60;70.60;;;;;;5049258;28;20045;-80
2022/06/26 12:26:42;;;;;;;2.25;0.70;;;22.50;70.60;;;;;;5008571;28;20045;-90
2022/06/26 12:29:16;;;;;;;1.92;0.70;;;22.50;70.90;;;;;;4997057;28;20042;-86
2022/06/26 12:31:52;;;;;;;2.55;1.05;;;22.40;70.80;;;;;;5052025;28;20075;-92
2022/06/26 12:34:41;;;;;;;1.88;0.80;;;22.30;71.10;;;;;;5058481;28;20068;-90
2022/06/26 12:37:38;;;;;;;2.15;0.73;;;22.20;71.10;;;;;;5055670;28;20053;-89
2022/06/26 12:40:46;;;;;;;2.00;0.70;;;22.10;71.30;;;;;;5072629;28;20098;-87
2022/06/26 12:43:27;;;;;;;2.03;0.60;;;22.00;71.20;;;;;;5048611;28;20131;-87
2022/06/26 12:45:58;;;;;;;1.70;0.57;;;21.90;71.30;;;;;;5055639;28;20074;-87
2022/06/26 12:49:00;;;;;;;2.08;0.73;;;21.80;71.30;;;;;;5046161;28;20059;-84
2022/06/26 12:51:31;;;;;;;1.98;0.70;;;21.60;71.40;;;;;;5054978;28;20099;-83
2022/06/26 12:53:58;;;;;;;1.48;0.63;;;21.60;71.50;;;;;;5031906;28;20053;-77
2022/06/26 12:56:25;;;;;;;2.28;0.80;;;21.60;71.60;;;;;;5060696;28;20118;-79
2022/06/26 12:58:54;;;;;;;1.48;0.80;;;21.50;71.70;;;;;;5056196;28;20443;-81
2022/06/26 13:01:21;;;;;;;1.63;0.70;;;21.50;71.80;;;;;;5054063;28;20048;-78
2022/06/26 13:03:59;;;;;;;2.08;0.80;;;21.60;71.90;;;;;;5024437;28;20041;-84
2022/06/26 13:12:08;;;;;;;1.80;0.65;;;21.70;71.50;;;;;;4983048;28;20935;-88
2022/06/26 13:14:41;;;;;;;2.15;0.80;;;21.80;71.20;;;;;;5004777;28;20058;-84
2022/06/26 13:21:04;;;;;;;0.90;0.47;;;22.10;71.10;;;;;;5038773;28;20061;-79
2022/06/26 13:24:04;;;;;;;;;;;;;;;;;;;;;
2022/06/26 13:26:49;;;;;;;1.42;0.60;;;22.70;70.00;;;;;;5012228;28;20143;-83
2022/06/26 13:29:21;;;;;;;1.17;0.50;;;23.30;69.20;;;;;;5006080;28;20133;-84
2022/06/26 13:31:52;;;;;;;1.17;0.50;;;24.10;68.00;;;;;;5014061;28;20068;-83
2022/06/26 13:34:23;;;;;;;1.25;0.60;;;24.70;66.90;;;;;;5013648;28;20045;-81